sensor_id;sensor_type;location;lat;lon;timestamp;temperature;humidity
69715;HTU21D;56981;53.532;49.398;2023-11-21T00:00:23;0.58;84.73
69715;HTU21D;56981;53.532;49.398;2023-11-21T00:02:50;0.52;85.08
69715;HTU21D;56981;53.532;49.398;2023-11-21T00:05:18;0.58;85.29
69715;HTU21D;56981;53.532;49.398;2023-11-21T00:07:45;0.59;85.36
69715;HTU21D;56981;53.532;49.398;2023-11-21T00:10:12;0.59;85.49
69715;HTU21D;56981;53.532;49.398;2023-11-21T00:12:40;0.58;85.69
69715;HTU21D;56981;53.532;49.398;2023-11-21T00:15:08;0.55;86.19
69715;HTU21D;56981;53.532;49.398;2023-11-21T00:17:38;0.55;86.41
69715;HTU21D;56981;53.532;49.398;2023-11-21T00:20:06;0.57;86.45
69715;HTU21D;56981;53.532;49.398;2023-11-21T00:22:34;0.57;86.64
69715;HTU21D;56981;53.532;49.398;2023-11-21T00:25:00;0.57;86.69
69715;HTU21D;56981;53.532;49.398;2023-11-21T00:27:27;0.55;86.96
69715;HTU21D;56981;53.532;49.398;2023-11-21T00:29:53;0.61;86.80
69715;HTU21D;56981;53.532;49.398;2023-11-21T00:32:20;0.60;87.03
69715;HTU21D;56981;53.532;49.398;2023-11-21T00:34:46;0.54;87.24
69715;HTU21D;56981;53.532;49.398;2023-11-21T00:37:12;0.52;87.59
69715;HTU21D;56981;53.532;49.398;2023-11-21T00:39:38;0.52;87.96
69715;HTU21D;56981;53.532;49.398;2023-11-21T00:42:06;0.51;87.81
69715;HTU21D;56981;53.532;49.398;2023-11-21T00:44:32;0.49;87.93
69715;HTU21D;56981;53.532;49.398;2023-11-21T00:47:00;0.50;87.99
69715;HTU21D;56981;53.532;49.398;2023-11-21T00:49:26;0.49;88.25
69715;HTU21D;56981;53.532;49.398;2023-11-21T00:51:53;0.49;88.24
69715;HTU21D;56981;53.532;49.398;2023-11-21T00:54:19;0.47;88.32
69715;HTU21D;56981;53.532;49.398;2023-11-21T00:56:45;0.49;88.47
69715;HTU21D;56981;53.532;49.398;2023-11-21T00:59:13;0.46;88.66
69715;HTU21D;56981;53.532;49.398;2023-11-21T01:01:39;0.48;88.56
69715;HTU21D;56981;53.532;49.398;2023-11-21T01:04:06;0.47;88.55
69715;HTU21D;56981;53.532;49.398;2023-11-21T01:06:35;0.52;88.72
69715;HTU21D;56981;53.532;49.398;2023-11-21T01:09:01;0.57;88.47
69715;HTU21D;56981;53.532;49.398;2023-11-21T01:11:29;0.58;88.35
69715;HTU21D;56981;53.532;49.398;2023-11-21T01:13:55;0.61;87.96
69715;HTU21D;56981;53.532;49.398;2023-11-21T01:16:21;0.58;88.12
69715;HTU21D;56981;53.532;49.398;2023-11-21T01:18:48;0.61;88.14
69715;HTU21D;56981;53.532;49.398;2023-11-21T01:21:14;0.63;87.93
69715;HTU21D;56981;53.532;49.398;2023-11-21T01:23:40;0.63;87.96
69715;HTU21D;56981;53.532;49.398;2023-11-21T01:26:06;0.63;87.78
69715;HTU21D;56981;53.532;49.398;2023-11-21T01:28:34;0.67;87.76
69715;HTU21D;56981;53.532;49.398;2023-11-21T01:31:00;0.68;87.64
69715;HTU21D;56981;53.532;49.398;2023-11-21T01:33:26;0.71;87.61
69715;HTU21D;56981;53.532;49.398;2023-11-21T01:35:52;0.73;87.48
69715;HTU21D;56981;53.532;49.398;2023-11-21T01:38:21;0.72;87.35
69715;HTU21D;56981;53.532;49.398;2023-11-21T01:40:48;0.72;87.54
69715;HTU21D;56981;53.532;49.398;2023-11-21T01:43:14;0.75;87.31
69715;HTU21D;56981;53.532;49.398;2023-11-21T01:45:40;0.74;87.46
69715;HTU21D;56981;53.532;49.398;2023-11-21T01:48:07;0.74;87.28
69715;HTU21D;56981;53.532;49.398;2023-11-21T01:50:34;0.76;87.31
69715;HTU21D;56981;53.532;49.398;2023-11-21T01:53:00;0.76;87.19
69715;HTU21D;56981;53.532;49.398;2023-11-21T01:55:27;0.77;87.09
69715;HTU21D;56981;53.532;49.398;2023-11-21T01:57:54;0.77;87.15
69715;HTU21D;56981;53.532;49.398;2023-11-21T02:00:21;0.77;87.38
69715;HTU21D;56981;53.532;49.398;2023-11-21T02:02:48;0.77;87.24
69715;HTU21D;56981;53.532;49.398;2023-11-21T02:05:16;0.79;87.15
69715;HTU21D;56981;53.532;49.398;2023-11-21T02:07:44;0.78;87.22
69715;HTU21D;56981;53.532;49.398;2023-11-21T02:10:16;0.78;87.12
69715;HTU21D;56981;53.532;49.398;2023-11-21T02:12:43;0.81;87.18
69715;HTU21D;56981;53.532;49.398;2023-11-21T02:15:10;0.84;87.21
69715;HTU21D;56981;53.532;49.398;2023-11-21T02:17:44;0.87;86.87
69715;HTU21D;56981;53.532;49.398;2023-11-21T02:20:13;0.87;87.03
69715;HTU21D;56981;53.532;49.398;2023-11-21T02:22:56;0.91;86.86
69715;HTU21D;56981;53.532;49.398;2023-11-21T02:25:32;0.94;86.70
69715;HTU21D;56981;53.532;49.398;2023-11-21T02:28:00;0.97;86.65
69715;HTU21D;56981;53.532;49.398;2023-11-21T02:30:27;0.99;86.35
69715;HTU21D;56981;53.532;49.398;2023-11-21T02:32:54;0.98;86.28
69715;HTU21D;56981;53.532;49.398;2023-11-21T02:35:21;0.98;86.46
69715;HTU21D;56981;53.532;49.398;2023-11-21T02:37:49;0.98;86.41
69715;HTU21D;56981;53.532;49.398;2023-11-21T02:40:16;1.04;86.51
69715;HTU21D;56981;53.532;49.398;2023-11-21T02:42:47;1.06;86.28
69715;HTU21D;56981;53.532;49.398;2023-11-21T02:45:14;1.06;86.32
69715;HTU21D;56981;53.532;49.398;2023-11-21T02:47:43;1.09;86.26
69715;HTU21D;56981;53.532;49.398;2023-11-21T02:50:10;1.08;86.17
69715;HTU21D;56981;53.532;49.398;2023-11-21T02:52:37;1.07;86.49
69715;HTU21D;56981;53.532;49.398;2023-11-21T02:55:03;1.08;86.41
69715;HTU21D;56981;53.532;49.398;2023-11-21T02:57:30;1.10;86.49
69715;HTU21D;56981;53.532;49.398;2023-11-21T02:59:56;1.12;86.53
69715;HTU21D;56981;53.532;49.398;2023-11-21T03:02:22;1.13;86.39
69715;HTU21D;56981;53.532;49.398;2023-11-21T03:04:49;1.11;86.38
69715;HTU21D;56981;53.532;49.398;2023-11-21T03:07:16;1.16;86.41
69715;HTU21D;56981;53.532;49.398;2023-11-21T03:09:43;1.18;86.30
69715;HTU21D;56981;53.532;49.398;2023-11-21T03:12:10;1.19;86.20
69715;HTU21D;56981;53.532;49.398;2023-11-21T03:14:39;1.22;86.25
69715;HTU21D;56981;53.532;49.398;2023-11-21T03:17:06;1.24;85.84
69715;HTU21D;56981;53.532;49.398;2023-11-21T03:19:32;1.25;86.06
69715;HTU21D;56981;53.532;49.398;2023-11-21T03:21:59;1.28;85.98
69715;HTU21D;56981;53.532;49.398;2023-11-21T03:24:25;1.27;85.95
69715;HTU21D;56981;53.532;49.398;2023-11-21T03:26:52;1.29;85.84
69715;HTU21D;56981;53.532;49.398;2023-11-21T03:29:18;1.27;85.96
69715;HTU21D;56981;53.532;49.398;2023-11-21T03:31:45;1.32;86.06
69715;HTU21D;56981;53.532;49.398;2023-11-21T03:34:27;1.33;86.06
69715;HTU21D;56981;53.532;49.398;2023-11-21T03:36:53;1.34;85.86
69715;HTU21D;56981;53.532;49.398;2023-11-21T03:39:20;1.35;85.96
69715;HTU21D;56981;53.532;49.398;2023-11-21T03:41:48;1.34;85.90
69715;HTU21D;56981;53.532;49.398;2023-11-21T03:44:14;1.38;85.82
69715;HTU21D;56981;53.532;49.398;2023-11-21T03:46:43;1.39;85.72
69715;HTU21D;56981;53.532;49.398;2023-11-21T03:49:10;1.39;85.87
69715;HTU21D;56981;53.532;49.398;2023-11-21T03:51:36;1.37;85.85
69715;HTU21D;56981;53.532;49.398;2023-11-21T03:54:05;1.34;86.10
69715;HTU21D;56981;53.532;49.398;2023-11-21T03:56:34;1.35;86.01
69715;HTU21D;56981;53.532;49.398;2023-11-21T03:59:00;1.36;86.04
69715;HTU21D;56981;53.532;49.398;2023-11-21T04:01:26;1.35;85.86
69715;HTU21D;56981;53.532;49.398;2023-11-21T04:03:53;1.35;86.09
69715;HTU21D;56981;53.532;49.398;2023-11-21T04:06:19;1.35;86.09
69715;HTU21D;56981;53.532;49.398;2023-11-21T04:08:45;1.32;86.29
69715;HTU21D;56981;53.532;49.398;2023-11-21T04:11:11;1.27;86.35
69715;HTU21D;56981;53.532;49.398;2023-11-21T04:13:41;1.33;86.55
69715;HTU21D;56981;53.532;49.398;2023-11-21T04:16:08;1.38;86.46
69715;HTU21D;56981;53.532;49.398;2023-11-21T04:18:38;1.38;86.39
69715;HTU21D;56981;53.532;49.398;2023-11-21T04:21:05;1.38;86.19
69715;HTU21D;56981;53.532;49.398;2023-11-21T04:23:31;1.38;86.40
69715;HTU21D;56981;53.532;49.398;2023-11-21T04:25:57;1.37;86.53
69715;HTU21D;56981;53.532;49.398;2023-11-21T04:28:24;1.39;86.79
69715;HTU21D;56981;53.532;49.398;2023-11-21T04:30:51;1.40;86.61
69715;HTU21D;56981;53.532;49.398;2023-11-21T04:33:17;1.40;86.71
69715;HTU21D;56981;53.532;49.398;2023-11-21T04:35:43;1.43;86.90
69715;HTU21D;56981;53.532;49.398;2023-11-21T04:38:09;1.46;86.88
69715;HTU21D;56981;53.532;49.398;2023-11-21T04:40:35;1.43;86.74
69715;HTU21D;56981;53.532;49.398;2023-11-21T04:43:01;1.49;86.89
69715;HTU21D;56981;53.532;49.398;2023-11-21T04:45:27;1.49;86.69
69715;HTU21D;56981;53.532;49.398;2023-11-21T04:47:53;1.52;86.90
69715;HTU21D;56981;53.532;49.398;2023-11-21T04:50:19;1.51;86.86
69715;HTU21D;56981;53.532;49.398;2023-11-21T04:52:46;1.53;86.94
69715;HTU21D;56981;53.532;49.398;2023-11-21T04:55:13;1.50;86.93
69715;HTU21D;56981;53.532;49.398;2023-11-21T04:57:39;1.53;86.92
69715;HTU21D;56981;53.532;49.398;2023-11-21T05:00:11;1.53;86.93
69715;HTU21D;56981;53.532;49.398;2023-11-21T05:02:39;1.52;87.06
69715;HTU21D;56981;53.532;49.398;2023-11-21T05:05:06;1.50;87.38
69715;HTU21D;56981;53.532;49.398;2023-11-21T05:07:33;1.49;87.35
69715;HTU21D;56981;53.532;49.398;2023-11-21T05:10:01;1.51;87.44
69715;HTU21D;56981;53.532;49.398;2023-11-21T05:12:31;1.55;87.51
69715;HTU21D;56981;53.532;49.398;2023-11-21T05:15:07;1.58;87.35
69715;HTU21D;56981;53.532;49.398;2023-11-21T05:17:37;1.60;87.23
69715;HTU21D;56981;53.532;49.398;2023-11-21T05:20:07;1.61;87.07
69715;HTU21D;56981;53.532;49.398;2023-11-21T05:22:36;1.63;86.96
69715;HTU21D;56981;53.532;49.398;2023-11-21T05:25:02;1.65;87.00
69715;HTU21D;56981;53.532;49.398;2023-11-21T05:27:29;1.72;86.90
69715;HTU21D;56981;53.532;49.398;2023-11-21T05:29:57;1.67;87.07
69715;HTU21D;56981;53.532;49.398;2023-11-21T05:32:24;1.65;87.59
69715;HTU21D;56981;53.532;49.398;2023-11-21T05:34:52;1.68;87.25
69715;HTU21D;56981;53.532;49.398;2023-11-21T05:37:18;1.71;87.32
69715;HTU21D;56981;53.532;49.398;2023-11-21T05:39:44;1.71;87.15
69715;HTU21D;56981;53.532;49.398;2023-11-21T05:42:10;1.75;87.31
69715;HTU21D;56981;53.532;49.398;2023-11-21T05:44:42;1.86;87.25
69715;HTU21D;56981;53.532;49.398;2023-11-21T05:47:09;1.93;86.83
69715;HTU21D;56981;53.532;49.398;2023-11-21T05:49:36;1.93;86.60
69715;HTU21D;56981;53.532;49.398;2023-11-21T05:52:03;1.97;86.29
69715;HTU21D;56981;53.532;49.398;2023-11-21T05:54:29;1.99;86.18
69715;HTU21D;56981;53.532;49.398;2023-11-21T05:56:56;2.02;86.33
69715;HTU21D;56981;53.532;49.398;2023-11-21T05:59:22;1.98;86.56
69715;HTU21D;56981;53.532;49.398;2023-11-21T06:01:49;2.00;86.69
69715;HTU21D;56981;53.532;49.398;2023-11-21T06:04:15;1.99;86.89
69715;HTU21D;56981;53.532;49.398;2023-11-21T06:06:42;2.05;86.97
69715;HTU21D;56981;53.532;49.398;2023-11-21T06:09:08;2.12;86.59
69715;HTU21D;56981;53.532;49.398;2023-11-21T06:11:35;2.00;86.92
69715;HTU21D;56981;53.532;49.398;2023-11-21T06:14:02;2.03;86.69
69715;HTU21D;56981;53.532;49.398;2023-11-21T06:16:28;2.10;86.58
69715;HTU21D;56981;53.532;49.398;2023-11-21T06:18:55;2.16;86.25
69715;HTU21D;56981;53.532;49.398;2023-11-21T06:21:21;2.29;86.18
69715;HTU21D;56981;53.532;49.398;2023-11-21T06:23:47;2.36;86.03
69715;HTU21D;56981;53.532;49.398;2023-11-21T06:26:13;2.38;86.06
69715;HTU21D;56981;53.532;49.398;2023-11-21T06:28:40;2.30;86.31
69715;HTU21D;56981;53.532;49.398;2023-11-21T06:31:07;2.32;86.38
69715;HTU21D;56981;53.532;49.398;2023-11-21T06:33:33;2.38;86.47
69715;HTU21D;56981;53.532;49.398;2023-11-21T06:36:00;2.45;86.27
69715;HTU21D;56981;53.532;49.398;2023-11-21T06:38:29;2.39;85.89
69715;HTU21D;56981;53.532;49.398;2023-11-21T06:40:58;2.42;86.43
69715;HTU21D;56981;53.532;49.398;2023-11-21T06:43:24;2.37;86.32
69715;HTU21D;56981;53.532;49.398;2023-11-21T06:45:52;2.31;86.98
69715;HTU21D;56981;53.532;49.398;2023-11-21T06:48:18;2.26;87.05
69715;HTU21D;56981;53.532;49.398;2023-11-21T06:50:44;2.28;87.29
69715;HTU21D;56981;53.532;49.398;2023-11-21T06:53:12;2.23;86.96
69715;HTU21D;56981;53.532;49.398;2023-11-21T06:55:39;2.21;86.97
69715;HTU21D;56981;53.532;49.398;2023-11-21T06:58:05;2.28;86.80
69715;HTU21D;56981;53.532;49.398;2023-11-21T07:00:31;2.28;86.25
69715;HTU21D;56981;53.532;49.398;2023-11-21T07:02:57;2.29;86.27
69715;HTU21D;56981;53.532;49.398;2023-11-21T07:05:23;2.32;85.84
69715;HTU21D;56981;53.532;49.398;2023-11-21T07:07:52;2.27;86.48
69715;HTU21D;56981;53.532;49.398;2023-11-21T07:10:22;2.17;86.69
69715;HTU21D;56981;53.532;49.398;2023-11-21T07:12:51;2.09;87.46
69715;HTU21D;56981;53.532;49.398;2023-11-21T07:15:17;2.06;87.58
69715;HTU21D;56981;53.532;49.398;2023-11-21T07:17:45;2.09;87.73
69715;HTU21D;56981;53.532;49.398;2023-11-21T07:20:12;2.13;87.68
69715;HTU21D;56981;53.532;49.398;2023-11-21T07:22:41;2.14;87.29
69715;HTU21D;56981;53.532;49.398;2023-11-21T07:25:07;2.21;87.40
69715;HTU21D;56981;53.532;49.398;2023-11-21T07:27:35;2.26;86.64
69715;HTU21D;56981;53.532;49.398;2023-11-21T07:30:02;2.25;86.40
69715;HTU21D;56981;53.532;49.398;2023-11-21T07:32:33;2.21;86.59
69715;HTU21D;56981;53.532;49.398;2023-11-21T07:34:59;2.20;86.78
69715;HTU21D;56981;53.532;49.398;2023-11-21T07:37:27;2.24;86.48
69715;HTU21D;56981;53.532;49.398;2023-11-21T07:39:54;2.24;86.52
69715;HTU21D;56981;53.532;49.398;2023-11-21T07:42:24;2.29;86.12
69715;HTU21D;56981;53.532;49.398;2023-11-21T07:44:52;2.21;86.10
69715;HTU21D;56981;53.532;49.398;2023-11-21T07:47:18;2.41;85.99
69715;HTU21D;56981;53.532;49.398;2023-11-21T07:49:47;2.42;85.57
69715;HTU21D;56981;53.532;49.398;2023-11-21T07:52:14;2.53;85.55
69715;HTU21D;56981;53.532;49.398;2023-11-21T07:54:42;2.66;84.73
69715;HTU21D;56981;53.532;49.398;2023-11-21T07:57:08;2.71;84.29
69715;HTU21D;56981;53.532;49.398;2023-11-21T07:59:37;2.69;84.39
69715;HTU21D;56981;53.532;49.398;2023-11-21T08:02:03;2.68;84.98
69715;HTU21D;56981;53.532;49.398;2023-11-21T08:04:31;2.71;84.18
69715;HTU21D;56981;53.532;49.398;2023-11-21T08:06:58;2.65;84.22
69715;HTU21D;56981;53.532;49.398;2023-11-21T08:09:24;2.57;84.71
69715;HTU21D;56981;53.532;49.398;2023-11-21T08:11:51;2.54;85.21
69715;HTU21D;56981;53.532;49.398;2023-11-21T08:14:22;2.69;86.61
69715;HTU21D;56981;53.532;49.398;2023-11-21T08:16:51;2.72;84.67
69715;HTU21D;56981;53.532;49.398;2023-11-21T08:19:18;2.83;85.80
69715;HTU21D;56981;53.532;49.398;2023-11-21T08:21:44;2.83;84.39
69715;HTU21D;56981;53.532;49.398;2023-11-21T08:24:11;2.82;84.98
69715;HTU21D;56981;53.532;49.398;2023-11-21T08:26:37;2.73;84.97
69715;HTU21D;56981;53.532;49.398;2023-11-21T08:29:04;2.65;84.73
69715;HTU21D;56981;53.532;49.398;2023-11-21T08:31:32;2.59;85.13
69715;HTU21D;56981;53.532;49.398;2023-11-21T08:33:59;2.61;84.97
69715;HTU21D;56981;53.532;49.398;2023-11-21T08:36:28;2.58;84.76
69715;HTU21D;56981;53.532;49.398;2023-11-21T08:38:55;2.59;84.69
69715;HTU21D;56981;53.532;49.398;2023-11-21T08:41:21;2.57;84.96
69715;HTU21D;56981;53.532;49.398;2023-11-21T08:43:50;2.55;85.49
69715;HTU21D;56981;53.532;49.398;2023-11-21T08:46:16;2.51;85.35
69715;HTU21D;56981;53.532;49.398;2023-11-21T08:48:43;2.42;85.47
69715;HTU21D;56981;53.532;49.398;2023-11-21T08:51:11;2.38;85.86
69715;HTU21D;56981;53.532;49.398;2023-11-21T08:53:40;2.34;85.73
69715;HTU21D;56981;53.532;49.398;2023-11-21T08:56:17;2.37;85.77
69715;HTU21D;56981;53.532;49.398;2023-11-21T08:58:44;2.41;85.69
69715;HTU21D;56981;53.532;49.398;2023-11-21T09:01:11;2.47;85.35
69715;HTU21D;56981;53.532;49.398;2023-11-21T09:03:38;2.45;85.52
69715;HTU21D;56981;53.532;49.398;2023-11-21T09:06:04;2.46;85.13
69715;HTU21D;56981;53.532;49.398;2023-11-21T09:08:31;2.50;84.71
69715;HTU21D;56981;53.532;49.398;2023-11-21T09:10:58;2.53;85.01
69715;HTU21D;56981;53.532;49.398;2023-11-21T09:13:27;2.46;84.95
69715;HTU21D;56981;53.532;49.398;2023-11-21T09:15:53;2.46;85.26
69715;HTU21D;56981;53.532;49.398;2023-11-21T09:18:19;2.38;85.21
69715;HTU21D;56981;53.532;49.398;2023-11-21T09:20:45;2.40;85.73
69715;HTU21D;56981;53.532;49.398;2023-11-21T09:23:12;2.34;85.67
69715;HTU21D;56981;53.532;49.398;2023-11-21T09:25:38;2.29;85.84
69715;HTU21D;56981;53.532;49.398;2023-11-21T09:28:05;2.31;86.12
69715;HTU21D;56981;53.532;49.398;2023-11-21T09:30:37;2.24;86.31
69715;HTU21D;56981;53.532;49.398;2023-11-21T09:33:04;2.21;86.04
69715;HTU21D;56981;53.532;49.398;2023-11-21T09:35:37;2.16;86.48
69715;HTU21D;56981;53.532;49.398;2023-11-21T09:38:06;2.21;86.39
69715;HTU21D;56981;53.532;49.398;2023-11-21T09:40:39;2.22;86.37
69715;HTU21D;56981;53.532;49.398;2023-11-21T09:43:14;2.24;86.26
69715;HTU21D;56981;53.532;49.398;2023-11-21T09:45:48;2.29;86.16
69715;HTU21D;56981;53.532;49.398;2023-11-21T09:48:17;2.30;85.85
69715;HTU21D;56981;53.532;49.398;2023-11-21T09:50:43;2.32;86.06
69715;HTU21D;56981;53.532;49.398;2023-11-21T09:53:22;2.36;85.78
69715;HTU21D;56981;53.532;49.398;2023-11-21T09:55:53;2.36;85.58
69715;HTU21D;56981;53.532;49.398;2023-11-21T09:58:21;2.36;85.46
69715;HTU21D;56981;53.532;49.398;2023-11-21T10:00:53;2.32;85.70
69715;HTU21D;56981;53.532;49.398;2023-11-21T10:03:19;2.31;85.98
69715;HTU21D;56981;53.532;49.398;2023-11-21T10:05:48;2.29;85.92
69715;HTU21D;56981;53.532;49.398;2023-11-21T10:08:16;2.28;86.20
69715;HTU21D;56981;53.532;49.398;2023-11-21T10:10:46;2.22;86.17
69715;HTU21D;56981;53.532;49.398;2023-11-21T10:13:15;2.13;86.41
69715;HTU21D;56981;53.532;49.398;2023-11-21T10:15:51;2.06;86.81
69715;HTU21D;56981;53.532;49.398;2023-11-21T10:18:26;2.03;86.90
69715;HTU21D;56981;53.532;49.398;2023-11-21T10:20:54;2.01;87.10
69715;HTU21D;56981;53.532;49.398;2023-11-21T10:23:22;1.97;87.25
69715;HTU21D;56981;53.532;49.398;2023-11-21T10:25:48;1.95;87.57
69715;HTU21D;56981;53.532;49.398;2023-11-21T10:28:19;2.01;87.05
69715;HTU21D;56981;53.532;49.398;2023-11-21T10:30:46;2.01;86.98
69715;HTU21D;56981;53.532;49.398;2023-11-21T10:33:13;1.98;86.88
69715;HTU21D;56981;53.532;49.398;2023-11-21T10:35:49;2.00;87.08
69715;HTU21D;56981;53.532;49.398;2023-11-21T10:38:21;1.98;87.24
69715;HTU21D;56981;53.532;49.398;2023-11-21T10:40:50;1.99;86.89
69715;HTU21D;56981;53.532;49.398;2023-11-21T10:43:17;1.98;86.74
69715;HTU21D;56981;53.532;49.398;2023-11-21T10:45:44;1.93;86.96
69715;HTU21D;56981;53.532;49.398;2023-11-21T10:48:13;1.95;87.25
69715;HTU21D;56981;53.532;49.398;2023-11-21T10:50:46;1.91;87.16
69715;HTU21D;56981;53.532;49.398;2023-11-21T10:53:13;1.86;87.49
69715;HTU21D;56981;53.532;49.398;2023-11-21T10:55:39;1.81;87.88
69715;HTU21D;56981;53.532;49.398;2023-11-21T10:58:06;1.80;88.19
69715;HTU21D;56981;53.532;49.398;2023-11-21T11:00:33;1.80;88.17
69715;HTU21D;56981;53.532;49.398;2023-11-21T11:03:00;1.81;88.36
69715;HTU21D;56981;53.532;49.398;2023-11-21T11:05:29;1.85;88.35
69715;HTU21D;56981;53.532;49.398;2023-11-21T11:08:05;1.86;88.12
69715;HTU21D;56981;53.532;49.398;2023-11-21T11:10:32;1.82;87.87
69715;HTU21D;56981;53.532;49.398;2023-11-21T11:12:59;1.80;88.57
69715;HTU21D;56981;53.532;49.398;2023-11-21T11:15:26;1.81;88.47
69715;HTU21D;56981;53.532;49.398;2023-11-21T11:17:54;1.81;88.45
69715;HTU21D;56981;53.532;49.398;2023-11-21T11:20:27;1.77;88.51
69715;HTU21D;56981;53.532;49.398;2023-11-21T11:26:09;1.75;88.73
69715;HTU21D;56981;53.532;49.398;2023-11-21T11:28:47;1.73;88.67
69715;HTU21D;56981;53.532;49.398;2023-11-21T11:34:30;1.71;89.02
69715;HTU21D;56981;53.532;49.398;2023-11-21T11:37:03;1.70;89.13
69715;HTU21D;56981;53.532;49.398;2023-11-21T11:39:34;1.69;89.21
69715;HTU21D;56981;53.532;49.398;2023-11-21T11:42:03;1.70;89.18
69715;HTU21D;56981;53.532;49.398;2023-11-21T11:47:28;1.67;89.70
69715;HTU21D;56981;53.532;49.398;2023-11-21T11:50:08;1.67;89.92
69715;HTU21D;56981;53.532;49.398;2023-11-21T11:52:51;1.64;89.98
69715;HTU21D;56981;53.532;49.398;2023-11-21T11:55:23;1.65;90.21
69715;HTU21D;56981;53.532;49.398;2023-11-21T11:57:54;1.67;90.36
69715;HTU21D;56981;53.532;49.398;2023-11-21T12:03:00;1.60;90.59
69715;HTU21D;56981;53.532;49.398;2023-11-21T12:05:30;1.54;90.82
69715;HTU21D;56981;53.532;49.398;2023-11-21T12:08:11;1.58;91.23
69715;HTU21D;56981;53.532;49.398;2023-11-21T12:10:38;1.63;91.11
69715;HTU21D;56981;53.532;49.398;2023-11-21T12:13:11;1.64;91.09
69715;HTU21D;56981;53.532;49.398;2023-11-21T12:15:40;1.64;90.77
69715;HTU21D;56981;53.532;49.398;2023-11-21T12:18:07;1.62;90.76
69715;HTU21D;56981;53.532;49.398;2023-11-21T12:20:33;1.63;91.13
69715;HTU21D;56981;53.532;49.398;2023-11-21T12:23:12;1.62;90.88
69715;HTU21D;56981;53.532;49.398;2023-11-21T12:25:44;1.60;91.00
69715;HTU21D;56981;53.532;49.398;2023-11-21T12:28:11;1.55;91.03
69715;HTU21D;56981;53.532;49.398;2023-11-21T12:30:40;1.50;91.65
69715;HTU21D;56981;53.532;49.398;2023-11-21T12:33:06;1.49;91.92
69715;HTU21D;56981;53.532;49.398;2023-11-21T12:35:35;1.49;92.14
69715;HTU21D;56981;53.532;49.398;2023-11-21T12:38:02;1.54;91.92
69715;HTU21D;56981;53.532;49.398;2023-11-21T12:40:29;1.58;91.72
69715;HTU21D;56981;53.532;49.398;2023-11-21T12:42:59;1.51;91.58
69715;HTU21D;56981;53.532;49.398;2023-11-21T12:45:28;1.49;91.80
69715;HTU21D;56981;53.532;49.398;2023-11-21T12:48:05;1.46;92.01
69715;HTU21D;56981;53.532;49.398;2023-11-21T12:50:35;1.49;92.05
69715;HTU21D;56981;53.532;49.398;2023-11-21T12:53:04;1.53;91.85
69715;HTU21D;56981;53.532;49.398;2023-11-21T12:55:32;1.55;91.83
69715;HTU21D;56981;53.532;49.398;2023-11-21T12:58:05;1.51;91.78
69715;HTU21D;56981;53.532;49.398;2023-11-21T13:00:39;1.49;91.82
69715;HTU21D;56981;53.532;49.398;2023-11-21T13:03:09;1.51;91.97
69715;HTU21D;56981;53.532;49.398;2023-11-21T13:05:39;1.45;91.72
69715;HTU21D;56981;53.532;49.398;2023-11-21T13:08:09;1.41;92.06
69715;HTU21D;56981;53.532;49.398;2023-11-21T13:10:43;1.42;91.96
69715;HTU21D;56981;53.532;49.398;2023-11-21T13:13:13;1.38;92.14
69715;HTU21D;56981;53.532;49.398;2023-11-21T13:15:53;1.33;92.08
69715;HTU21D;56981;53.532;49.398;2023-11-21T13:18:24;1.29;92.33
69715;HTU21D;56981;53.532;49.398;2023-11-21T13:20:56;1.24;92.45
69715;HTU21D;56981;53.532;49.398;2023-11-21T13:23:23;1.23;92.81
69715;HTU21D;56981;53.532;49.398;2023-11-21T13:25:50;1.24;92.64
69715;HTU21D;56981;53.532;49.398;2023-11-21T13:28:16;1.22;92.85
69715;HTU21D;56981;53.532;49.398;2023-11-21T13:30:44;1.20;92.71
69715;HTU21D;56981;53.532;49.398;2023-11-21T13:33:10;1.18;92.77
69715;HTU21D;56981;53.532;49.398;2023-11-21T13:35:44;1.16;92.87
69715;HTU21D;56981;53.532;49.398;2023-11-21T13:38:18;1.16;93.25
69715;HTU21D;56981;53.532;49.398;2023-11-21T13:40:51;1.14;93.04
69715;HTU21D;56981;53.532;49.398;2023-11-21T13:43:21;1.13;93.20
69715;HTU21D;56981;53.532;49.398;2023-11-21T13:45:50;1.14;93.11
69715;HTU21D;56981;53.532;49.398;2023-11-21T13:48:21;1.18;93.11
69715;HTU21D;56981;53.532;49.398;2023-11-21T13:50:57;1.18;92.80
69715;HTU21D;56981;53.532;49.398;2023-11-21T13:53:34;1.24;93.15
69715;HTU21D;56981;53.532;49.398;2023-11-21T13:56:03;1.26;92.81
69715;HTU21D;56981;53.532;49.398;2023-11-21T13:58:30;1.25;92.54
69715;HTU21D;56981;53.532;49.398;2023-11-21T14:01:15;1.24;92.47
69715;HTU21D;56981;53.532;49.398;2023-11-21T14:04:03;1.20;92.60
69715;HTU21D;56981;53.532;49.398;2023-11-21T14:06:49;1.23;92.79
69715;HTU21D;56981;53.532;49.398;2023-11-21T14:09:19;1.21;92.84
69715;HTU21D;56981;53.532;49.398;2023-11-21T14:11:55;1.22;92.76
69715;HTU21D;56981;53.532;49.398;2023-11-21T14:14:25;1.26;92.77
69715;HTU21D;56981;53.532;49.398;2023-11-21T14:16:52;1.23;92.31
69715;HTU21D;56981;53.532;49.398;2023-11-21T14:19:18;1.20;92.53
69715;HTU21D;56981;53.532;49.398;2023-11-21T14:21:46;1.14;92.43
69715;HTU21D;56981;53.532;49.398;2023-11-21T14:24:14;1.11;92.68
69715;HTU21D;56981;53.532;49.398;2023-11-21T14:26:45;1.14;92.88
69715;HTU21D;56981;53.532;49.398;2023-11-21T14:29:18;1.14;92.70
69715;HTU21D;56981;53.532;49.398;2023-11-21T14:31:46;1.12;92.68
69715;HTU21D;56981;53.532;49.398;2023-11-21T14:34:13;1.10;92.68
69715;HTU21D;56981;53.532;49.398;2023-11-21T14:36:40;1.09;92.85
69715;HTU21D;56981;53.532;49.398;2023-11-21T14:39:06;1.10;92.89
69715;HTU21D;56981;53.532;49.398;2023-11-21T14:41:36;1.12;92.91
69715;HTU21D;56981;53.532;49.398;2023-11-21T14:44:04;1.11;92.82
69715;HTU21D;56981;53.532;49.398;2023-11-21T14:46:33;1.13;92.93
69715;HTU21D;56981;53.532;49.398;2023-11-21T14:49:00;1.13;92.66
69715;HTU21D;56981;53.532;49.398;2023-11-21T14:51:50;1.14;92.82
69715;HTU21D;56981;53.532;49.398;2023-11-21T14:54:30;1.16;92.86
69715;HTU21D;56981;53.532;49.398;2023-11-21T14:57:13;1.22;92.66
69715;HTU21D;56981;53.532;49.398;2023-11-21T14:59:46;1.20;92.43
69715;HTU21D;56981;53.532;49.398;2023-11-21T15:02:15;1.19;92.65
69715;HTU21D;56981;53.532;49.398;2023-11-21T15:04:43;1.18;92.74
69715;HTU21D;56981;53.532;49.398;2023-11-21T15:07:10;1.23;92.64
69715;HTU21D;56981;53.532;49.398;2023-11-21T15:09:39;1.21;92.45
69715;HTU21D;56981;53.532;49.398;2023-11-21T15:12:09;1.21;92.40
69715;HTU21D;56981;53.532;49.398;2023-11-21T15:14:50;1.22;92.48
69715;HTU21D;56981;53.532;49.398;2023-11-21T15:17:20;1.23;92.32
69715;HTU21D;56981;53.532;49.398;2023-11-21T15:19:55;1.20;92.43
69715;HTU21D;56981;53.532;49.398;2023-11-21T15:22:21;1.23;92.37
69715;HTU21D;56981;53.532;49.398;2023-11-21T15:24:48;1.21;92.43
69715;HTU21D;56981;53.532;49.398;2023-11-21T15:27:16;1.21;92.24
69715;HTU21D;56981;53.532;49.398;2023-11-21T15:29:46;1.21;92.08
69715;HTU21D;56981;53.532;49.398;2023-11-21T15:32:13;1.18;92.14
69715;HTU21D;56981;53.532;49.398;2023-11-21T15:34:39;1.21;92.28